sensor_id;sensor_type;location;lat;lon;timestamp;P1;durP1;ratioP1;P2;durP2;ratioP2
20657;SDS011;10488;50.846;4.078;2022-10-26T00:01:31;5.38;;;2.00;;
20657;SDS011;10488;50.846;4.078;2022-10-26T00:03:56;9.70;;;1.85;;
20657;SDS011;10488;50.846;4.078;2022-10-26T00:06:23;8.30;;;1.67;;
20657;SDS011;10488;50.846;4.078;2022-10-26T00:08:50;7.82;;;1.98;;
20657;SDS011;10488;50.846;4.078;2022-10-26T00:11:16;6.97;;;1.98;;
20657;SDS011;10488;50.846;4.078;2022-10-26T00:13:43;5.88;;;1.70;;
20657;SDS011;10488;50.846;4.078;2022-10-26T00:18:39;7.75;;;1.88;;
20657;SDS011;10488;50.846;4.078;2022-10-26T00:21:05;6.55;;;1.90;;
20657;SDS011;10488;50.846;4.078;2022-10-26T00:23:32;6.53;;;1.67;;
20657;SDS011;10488;50.846;4.078;2022-10-26T00:25:59;6.18;;;1.95;;
20657;SDS011;10488;50.846;4.078;2022-10-26T00:28:25;7.63;;;1.98;;
20657;SDS011;10488;50.846;4.078;2022-10-26T00:30:51;5.22;;;1.95;;
20657;SDS011;10488;50.846;4.078;2022-10-26T00:33:17;5.50;;;1.60;;
20657;SDS011;10488;50.846;4.078;2022-10-26T00:35:45;5.80;;;1.98;;
20657;SDS011;10488;50.846;4.078;2022-10-26T00:38:13;11.20;;;1.85;;
20657;SDS011;10488;50.846;4.078;2022-10-26T00:40:38;5.57;;;1.70;;
20657;SDS011;10488;50.846;4.078;2022-10-26T00:43:05;5.35;;;2.10;;
20657;SDS011;10488;50.846;4.078;2022-10-26T00:45:54;7.95;;;2.05;;
20657;SDS011;10488;50.846;4.078;2022-10-26T00:48:23;5.15;;;1.63;;
20657;SDS011;10488;50.846;4.078;2022-10-26T00:50:52;8.90;;;2.33;;
20657;SDS011;10488;50.846;4.078;2022-10-26T00:53:20;7.80;;;1.85;;
20657;SDS011;10488;50.846;4.078;2022-10-26T00:55:47;7.95;;;2.03;;
20657;SDS011;10488;50.846;4.078;2022-10-26T00:58:16;5.03;;;1.65;;
20657;SDS011;10488;50.846;4.078;2022-10-26T01:00:43;6.60;;;2.22;;
20657;SDS011;10488;50.846;4.078;2022-10-26T01:03:09;5.55;;;1.60;;
20657;SDS011;10488;50.846;4.078;2022-10-26T01:05:36;6.00;;;1.70;;
20657;SDS011;10488;50.846;4.078;2022-10-26T01:08:05;12.25;;;2.03;;
20657;SDS011;10488;50.846;4.078;2022-10-26T01:10:32;7.88;;;1.95;;
20657;SDS011;10488;50.846;4.078;2022-10-26T01:13:00;4.35;;;1.80;;
20657;SDS011;10488;50.846;4.078;2022-10-26T01:15:30;7.57;;;1.83;;
20657;SDS011;10488;50.846;4.078;2022-10-26T01:18:09;13.52;;;2.15;;
20657;SDS011;10488;50.846;4.078;2022-10-26T01:32:16;5.30;;;1.65;;
20657;SDS011;10488;50.846;4.078;2022-10-26T01:34:31;5.38;;;1.98;;
20657;SDS011;10488;50.846;4.078;2022-10-26T01:37:21;7.90;;;1.95;;
20657;SDS011;10488;50.846;4.078;2022-10-26T01:39:53;6.32;;;1.80;;
20657;SDS011;10488;50.846;4.078;2022-10-26T01:42:31;5.72;;;2.05;;
20657;SDS011;10488;50.846;4.078;2022-10-26T01:45:05;6.40;;;2.05;;
20657;SDS011;10488;50.846;4.078;2022-10-26T01:47:33;9.63;;;1.80;;
20657;SDS011;10488;50.846;4.078;2022-10-26T01:50:01;5.00;;;1.80;;
20657;SDS011;10488;50.846;4.078;2022-10-26T01:52:28;4.60;;;1.63;;
20657;SDS011;10488;50.846;4.078;2022-10-26T01:55:00;5.85;;;1.80;;
20657;SDS011;10488;50.846;4.078;2022-10-26T01:57:49;9.63;;;2.20;;
20657;SDS011;10488;50.846;4.078;2022-10-26T02:00:15;3.00;;;1.70;;
20657;SDS011;10488;50.846;4.078;2022-10-26T02:02:56;6.60;;;1.95;;
20657;SDS011;10488;50.846;4.078;2022-10-26T02:08:34;8.00;;;1.92;;
20657;SDS011;10488;50.846;4.078;2022-10-26T02:11:37;7.60;;;2.33;;
20657;SDS011;10488;50.846;4.078;2022-10-26T02:14:13;7.82;;;1.98;;
20657;SDS011;10488;50.846;4.078;2022-10-26T02:16:51;3.08;;;1.95;;
20657;SDS011;10488;50.846;4.078;2022-10-26T02:21:52;11.05;;;2.13;;
20657;SDS011;10488;50.846;4.078;2022-10-26T02:24:24;7.45;;;2.15;;
20657;SDS011;10488;50.846;4.078;2022-10-26T02:26:52;4.97;;;1.70;;
20657;SDS011;10488;50.846;4.078;2022-10-26T02:29:20;9.60;;;2.33;;
20657;SDS011;10488;50.846;4.078;2022-10-26T02:31:47;5.50;;;2.03;;
20657;SDS011;10488;50.846;4.078;2022-10-26T02:34:15;5.13;;;1.80;;
20657;SDS011;10488;50.846;4.078;2022-10-26T02:36:45;7.53;;;2.10;;
20657;SDS011;10488;50.846;4.078;2022-10-26T02:39:13;6.18;;;2.33;;
20657;SDS011;10488;50.846;4.078;2022-10-26T02:41:42;10.93;;;2.05;;
20657;SDS011;10488;50.846;4.078;2022-10-26T02:46:45;8.07;;;2.33;;
20657;SDS011;10488;50.846;4.078;2022-10-26T02:49:11;8.15;;;2.67;;
20657;SDS011;10488;50.846;4.078;2022-10-26T02:54:26;6.72;;;2.10;;
20657;SDS011;10488;50.846;4.078;2022-10-26T02:57:12;8.25;;;2.30;;
20657;SDS011;10488;50.846;4.078;2022-10-26T02:59:43;9.55;;;2.88;;
20657;SDS011;10488;50.846;4.078;2022-10-26T03:02:12;15.23;;;2.75;;
20657;SDS011;10488;50.846;4.078;2022-10-26T03:04:39;11.43;;;2.83;;
20657;SDS011;10488;50.846;4.078;2022-10-26T03:07:04;5.60;;;2.00;;
20657;SDS011;10488;50.846;4.078;2022-10-26T03:09:30;7.97;;;2.17;;
20657;SDS011;10488;50.846;4.078;2022-10-26T03:11:55;9.70;;;2.08;;
20657;SDS011;10488;50.846;4.078;2022-10-26T03:14:21;4.13;;;1.80;;
20657;SDS011;10488;50.846;4.078;2022-10-26T03:16:47;6.47;;;1.80;;
20657;SDS011;10488;50.846;4.078;2022-10-26T03:19:12;5.65;;;2.00;;
20657;SDS011;10488;50.846;4.078;2022-10-26T03:21:38;8.48;;;2.13;;
20657;SDS011;10488;50.846;4.078;2022-10-26T03:24:06;7.90;;;2.20;;
20657;SDS011;10488;50.846;4.078;2022-10-26T03:26:32;8.23;;;2.28;;
20657;SDS011;10488;50.846;4.078;2022-10-26T03:28:58;5.85;;;2.30;;
20657;SDS011;10488;50.846;4.078;2022-10-26T03:31:24;5.72;;;2.15;;
20657;SDS011;10488;50.846;4.078;2022-10-26T03:33:50;7.20;;;2.05;;
20657;SDS011;10488;50.846;4.078;2022-10-26T03:36:15;8.52;;;2.38;;
20657;SDS011;10488;50.846;4.078;2022-10-26T03:38:41;5.97;;;2.08;;
20657;SDS011;10488;50.846;4.078;2022-10-26T03:41:07;5.05;;;2.10;;
20657;SDS011;10488;50.846;4.078;2022-10-26T03:43:32;5.43;;;1.63;;
20657;SDS011;10488;50.846;4.078;2022-10-26T03:45:58;9.35;;;1.88;;
20657;SDS011;10488;50.846;4.078;2022-10-26T03:48:24;6.20;;;2.03;;
20657;SDS011;10488;50.846;4.078;2022-10-26T03:50:49;2.97;;;1.40;;
20657;SDS011;10488;50.846;4.078;2022-10-26T03:53:15;9.35;;;1.83;;
20657;SDS011;10488;50.846;4.078;2022-10-26T03:55:44;6.30;;;1.80;;
20657;SDS011;10488;50.846;4.078;2022-10-26T03:58:09;5.85;;;1.40;;
20657;SDS011;10488;50.846;4.078;2022-10-26T04:00:35;3.42;;;1.40;;
20657;SDS011;10488;50.846;4.078;2022-10-26T04:03:01;6.57;;;1.30;;
20657;SDS011;10488;50.846;4.078;2022-10-26T04:05:27;7.95;;;1.30;;
20657;SDS011;10488;50.846;4.078;2022-10-26T04:07:54;7.82;;;1.30;;
20657;SDS011;10488;50.846;4.078;2022-10-26T04:10:21;4.82;;;1.38;;
20657;SDS011;10488;50.846;4.078;2022-10-26T04:12:48;5.47;;;1.30;;
20657;SDS011;10488;50.846;4.078;2022-10-26T04:15:14;6.13;;;1.10;;
20657;SDS011;10488;50.846;4.078;2022-10-26T04:17:40;3.15;;;1.00;;
20657;SDS011;10488;50.846;4.078;2022-10-26T04:20:06;6.30;;;1.33;;
20657;SDS011;10488;50.846;4.078;2022-10-26T04:22:32;4.43;;;1.00;;
20657;SDS011;10488;50.846;4.078;2022-10-26T04:24:59;3.58;;;1.40;;
20657;SDS011;10488;50.846;4.078;2022-10-26T04:27:24;4.10;;;1.20;;
20657;SDS011;10488;50.846;4.078;2022-10-26T04:29:50;4.47;;;1.17;;
20657;SDS011;10488;50.846;4.078;2022-10-26T04:32:16;2.92;;;1.20;;
20657;SDS011;10488;50.846;4.078;2022-10-26T04:34:41;4.32;;;1.10;;
20657;SDS011;10488;50.846;4.078;2022-10-26T04:37:07;4.07;;;1.30;;
20657;SDS011;10488;50.846;4.078;2022-10-26T04:39:32;5.75;;;1.42;;
20657;SDS011;10488;50.846;4.078;2022-10-26T04:41:58;3.17;;;1.05;;
20657;SDS011;10488;50.846;4.078;2022-10-26T04:44:24;5.10;;;1.40;;
20657;SDS011;10488;50.846;4.078;2022-10-26T04:46:49;5.70;;;1.05;;
20657;SDS011;10488;50.846;4.078;2022-10-26T04:49:15;3.95;;;1.50;;
20657;SDS011;10488;50.846;4.078;2022-10-26T04:51:40;6.25;;;1.17;;
20657;SDS011;10488;50.846;4.078;2022-10-26T04:54:06;2.15;;;1.33;;
20657;SDS011;10488;50.846;4.078;2022-10-26T04:56:32;4.03;;;1.13;;
20657;SDS011;10488;50.846;4.078;2022-10-26T04:58:58;3.33;;;1.45;;
20657;SDS011;10488;50.846;4.078;2022-10-26T05:01:23;3.42;;;1.20;;
20657;SDS011;10488;50.846;4.078;2022-10-26T05:03:49;6.40;;;1.30;;
20657;SDS011;10488;50.846;4.078;2022-10-26T05:06:17;4.25;;;1.15;;
20657;SDS011;10488;50.846;4.078;2022-10-26T05:08:45;3.17;;;1.35;;
20657;SDS011;10488;50.846;4.078;2022-10-26T05:11:11;3.50;;;1.20;;
20657;SDS011;10488;50.846;4.078;2022-10-26T05:13:37;3.97;;;1.40;;
20657;SDS011;10488;50.846;4.078;2022-10-26T05:16:03;6.43;;;1.60;;
20657;SDS011;10488;50.846;4.078;2022-10-26T05:18:29;4.18;;;1.50;;
20657;SDS011;10488;50.846;4.078;2022-10-26T05:20:55;5.28;;;1.58;;
20657;SDS011;10488;50.846;4.078;2022-10-26T05:23:20;4.30;;;1.40;;
20657;SDS011;10488;50.846;4.078;2022-10-26T05:25:46;3.55;;;1.30;;
20657;SDS011;10488;50.846;4.078;2022-10-26T05:28:12;2.42;;;1.60;;
20657;SDS011;10488;50.846;4.078;2022-10-26T05:30:39;2.88;;;1.38;;
20657;SDS011;10488;50.846;4.078;2022-10-26T05:33:07;7.38;;;1.98;;
20657;SDS011;10488;50.846;4.078;2022-10-26T05:35:35;6.20;;;1.58;;
20657;SDS011;10488;50.846;4.078;2022-10-26T05:38:12;3.60;;;1.60;;
20657;SDS011;10488;50.846;4.078;2022-10-26T05:40:45;8.88;;;1.50;;
20657;SDS011;10488;50.846;4.078;2022-10-26T05:43:11;4.95;;;1.85;;
20657;SDS011;10488;50.846;4.078;2022-10-26T05:45:38;9.90;;;2.10;;
20657;SDS011;10488;50.846;4.078;2022-10-26T05:48:03;8.15;;;1.77;;
20657;SDS011;10488;50.846;4.078;2022-10-26T05:50:29;5.78;;;1.40;;
20657;SDS011;10488;50.846;4.078;2022-10-26T05:55:47;4.05;;;1.50;;
20657;SDS011;10488;50.846;4.078;2022-10-26T05:58:13;5.88;;;1.65;;
20657;SDS011;10488;50.846;4.078;2022-10-26T06:01:04;1.90;;;1.70;;
20657;SDS011;10488;50.846;4.078;2022-10-26T06:06:15;5.07;;;1.83;;
20657;SDS011;10488;50.846;4.078;2022-10-26T06:08:41;3.38;;;1.50;;
20657;SDS011;10488;50.846;4.078;2022-10-26T06:11:07;5.40;;;1.60;;
20657;SDS011;10488;50.846;4.078;2022-10-26T06:13:33;8.00;;;2.00;;
20657;SDS011;10488;50.846;4.078;2022-10-26T06:19:05;4.53;;;1.85;;
20657;SDS011;10488;50.846;4.078;2022-10-26T06:21:58;11.02;;;1.92;;
20657;SDS011;10488;50.846;4.078;2022-10-26T06:30:09;4.72;;;1.88;;
20657;SDS011;10488;50.846;4.078;2022-10-26T06:32:38;5.90;;;2.00;;
20657;SDS011;10488;50.846;4.078;2022-10-26T06:35:14;5.85;;;1.85;;
20657;SDS011;10488;50.846;4.078;2022-10-26T06:37:59;8.52;;;2.40;;
20657;SDS011;10488;50.846;4.078;2022-10-26T06:40:30;6.63;;;2.25;;
20657;SDS011;10488;50.846;4.078;2022-10-26T06:42:59;6.35;;;2.40;;
20657;SDS011;10488;50.846;4.078;2022-10-26T06:45:25;4.00;;;1.73;;
20657;SDS011;10488;50.846;4.078;2022-10-26T06:48:03;7.22;;;2.42;;
20657;SDS011;10488;50.846;4.078;2022-10-26T06:50:39;8.88;;;2.03;;
20657;SDS011;10488;50.846;4.078;2022-10-26T06:55:46;5.00;;;2.83;;
20657;SDS011;10488;50.846;4.078;2022-10-26T06:58:18;5.72;;;1.50;;
20657;SDS011;10488;50.846;4.078;2022-10-26T07:00:46;5.40;;;2.38;;
20657;SDS011;10488;50.846;4.078;2022-10-26T07:03:14;5.55;;;1.77;;
20657;SDS011;10488;50.846;4.078;2022-10-26T07:05:40;9.57;;;2.22;;
20657;SDS011;10488;50.846;4.078;2022-10-26T07:08:08;5.00;;;2.50;;
20657;SDS011;10488;50.846;4.078;2022-10-26T07:10:33;8.05;;;2.30;;
20657;SDS011;10488;50.846;4.078;2022-10-26T07:13:03;4.00;;;2.00;;
20657;SDS011;10488;50.846;4.078;2022-10-26T07:15:32;4.20;;;1.65;;
20657;SDS011;10488;50.846;4.078;2022-10-26T07:17:58;10.35;;;2.50;;
20657;SDS011;10488;50.846;4.078;2022-10-26T07:20:24;6.70;;;2.35;;
20657;SDS011;10488;50.846;4.078;2022-10-26T07:22:50;5.68;;;1.98;;
20657;SDS011;10488;50.846;4.078;2022-10-26T07:25:17;5.32;;;2.38;;
20657;SDS011;10488;50.846;4.078;2022-10-26T07:27:43;8.20;;;2.05;;
20657;SDS011;10488;50.846;4.078;2022-10-26T07:30:08;3.90;;;2.15;;
20657;SDS011;10488;50.846;4.078;2022-10-26T07:32:34;11.90;;;2.25;;
20657;SDS011;10488;50.846;4.078;2022-10-26T07:35:01;4.72;;;2.00;;
20657;SDS011;10488;50.846;4.078;2022-10-26T07:37:27;6.85;;;2.30;;
20657;SDS011;10488;50.846;4.078;2022-10-26T07:39:52;6.15;;;2.08;;
20657;SDS011;10488;50.846;4.078;2022-10-26T07:42:18;5.97;;;2.10;;
20657;SDS011;10488;50.846;4.078;2022-10-26T07:44:43;7.22;;;1.63;;
20657;SDS011;10488;50.846;4.078;2022-10-26T07:47:09;4.00;;;1.48;;
20657;SDS011;10488;50.846;4.078;2022-10-26T07:49:35;8.10;;;1.85;;
20657;SDS011;10488;50.846;4.078;2022-10-26T07:52:00;4.03;;;1.70;;
20657;SDS011;10488;50.846;4.078;2022-10-26T07:54:26;5.63;;;2.20;;
20657;SDS011;10488;50.846;4.078;2022-10-26T07:56:52;3.13;;;1.58;;
20657;SDS011;10488;50.846;4.078;2022-10-26T07:59:17;4.50;;;1.85;;
20657;SDS011;10488;50.846;4.078;2022-10-26T08:01:43;6.03;;;2.03;;
20657;SDS011;10488;50.846;4.078;2022-10-26T08:04:09;6.53;;;2.03;;
20657;SDS011;10488;50.846;4.078;2022-10-26T08:06:35;9.05;;;2.22;;
20657;SDS011;10488;50.846;4.078;2022-10-26T08:09:01;3.83;;;2.10;;
20657;SDS011;10488;50.846;4.078;2022-10-26T08:11:27;2.75;;;1.67;;
20657;SDS011;10488;50.846;4.078;2022-10-26T08:13:52;5.57;;;2.00;;
20657;SDS011;10488;50.846;4.078;2022-10-26T08:16:19;4.65;;;1.70;;
20657;SDS011;10488;50.846;4.078;2022-10-26T08:18:49;3.00;;;1.50;;
20657;SDS011;10488;50.846;4.078;2022-10-26T08:21:16;3.33;;;2.15;;
20657;SDS011;10488;50.846;4.078;2022-10-26T08:23:42;5.63;;;2.00;;
20657;SDS011;10488;50.846;4.078;2022-10-26T08:26:08;4.90;;;2.05;;
20657;SDS011;10488;50.846;4.078;2022-10-26T08:28:35;6.88;;;1.88;;
20657;SDS011;10488;50.846;4.078;2022-10-26T08:31:02;8.15;;;2.00;;
20657;SDS011;10488;50.846;4.078;2022-10-26T08:33:28;8.35;;;1.48;;
20657;SDS011;10488;50.846;4.078;2022-10-26T08:35:57;6.45;;;1.85;;
20657;SDS011;10488;50.846;4.078;2022-10-26T08:38:24;7.07;;;2.22;;
20657;SDS011;10488;50.846;4.078;2022-10-26T08:40:50;4.05;;;1.70;;
20657;SDS011;10488;50.846;4.078;2022-10-26T08:46:11;10.05;;;2.47;;
20657;SDS011;10488;50.846;4.078;2022-10-26T08:48:59;9.02;;;1.90;;
20657;SDS011;10488;50.846;4.078;2022-10-26T08:51:43;4.88;;;2.35;;
20657;SDS011;10488;50.846;4.078;2022-10-26T08:54:15;5.95;;;1.95;;
20657;SDS011;10488;50.846;4.078;2022-10-26T08:56:46;14.27;;;2.33;;
20657;SDS011;10488;50.846;4.078;2022-10-26T09:02:14;7.85;;;2.03;;
20657;SDS011;10488;50.846;4.078;2022-10-26T09:04:41;4.45;;;1.70;;
20657;SDS011;10488;50.846;4.078;2022-10-26T09:12:53;5.47;;;1.80;;
20657;SDS011;10488;50.846;4.078;2022-10-26T09:18:30;5.70;;;1.88;;
20657;SDS011;10488;50.846;4.078;2022-10-26T09:21:09;8.20;;;1.98;;
20657;SDS011;10488;50.846;4.078;2022-10-26T09:24:01;6.80;;;2.08;;
20657;SDS011;10488;50.846;4.078;2022-10-26T09:26:38;7.57;;;2.13;;
20657;SDS011;10488;50.846;4.078;2022-10-26T09:29:19;5.47;;;2.33;;
20657;SDS011;10488;50.846;4.078;2022-10-26T09:31:51;9.07;;;2.08;;
20657;SDS011;10488;50.846;4.078;2022-10-26T09:36:54;4.85;;;2.00;;
20657;SDS011;10488;50.846;4.078;2022-10-26T09:39:35;6.82;;;2.13;;
20657;SDS011;10488;50.846;4.078;2022-10-26T09:45:26;5.07;;;1.70;;
20657;SDS011;10488;50.846;4.078;2022-10-26T09:47:41;6.63;;;1.73;;
20657;SDS011;10488;50.846;4.078;2022-10-26T09:50:15;6.22;;;1.92;;
20657;SDS011;10488;50.846;4.078;2022-10-26T09:52:46;6.20;;;2.10;;
20657;SDS011;10488;50.846;4.078;2022-10-26T09:55:12;6.30;;;1.55;;
20657;SDS011;10488;50.846;4.078;2022-10-26T09:57:41;5.35;;;1.80;;
20657;SDS011;10488;50.846;4.078;2022-10-26T10:00:13;5.28;;;1.75;;
20657;SDS011;10488;50.846;4.078;2022-10-26T10:02:44;8.48;;;1.65;;
20657;SDS011;10488;50.846;4.078;2022-10-26T10:07:49;5.95;;;1.88;;
20657;SDS011;10488;50.846;4.078;2022-10-26T10:12:42;9.45;;;1.55;;
20657;SDS011;10488;50.846;4.078;2022-10-26T10:17:49;3.60;;;1.55;;
20657;SDS011;10488;50.846;4.078;2022-10-26T10:20:17;8.63;;;1.67;;
20657;SDS011;10488;50.846;4.078;2022-10-26T10:22:52;9.93;;;2.60;;
20657;SDS011;10488;50.846;4.078;2022-10-26T10:25:35;9.73;;;2.35;;
20657;SDS011;10488;50.846;4.078;2022-10-26T10:28:16;4.75;;;1.60;;
20657;SDS011;10488;50.846;4.078;2022-10-26T10:30:52;3.83;;;1.38;;
20657;SDS011;10488;50.846;4.078;2022-10-26T10:33:32;3.90;;;1.48;;
20657;SDS011;10488;50.846;4.078;2022-10-26T10:36:07;7.15;;;1.45;;
20657;SDS011;10488;50.846;4.078;2022-10-26T10:38:42;4.93;;;1.60;;
20657;SDS011;10488;50.846;4.078;2022-10-26T10:41:17;7.20;;;1.50;;
20657;SDS011;10488;50.846;4.078;2022-10-26T10:43:51;3.05;;;1.10;;
20657;SDS011;10488;50.846;4.078;2022-10-26T10:46:20;4.32;;;1.50;;
20657;SDS011;10488;50.846;4.078;2022-10-26T10:48:53;2.45;;;1.30;;
20657;SDS011;10488;50.846;4.078;2022-10-26T10:51:26;6.90;;;1.85;;
20657;SDS011;10488;50.846;4.078;2022-10-26T10:53:54;4.75;;;1.50;;
20657;SDS011;10488;50.846;4.078;2022-10-26T10:59:16;3.63;;;1.48;;
20657;SDS011;10488;50.846;4.078;2022-10-26T11:05:10;3.53;;;1.13;;
20657;SDS011;10488;50.846;4.078;2022-10-26T11:07:54;10.15;;;2.30;;
20657;SDS011;10488;50.846;4.078;2022-10-26T11:10:29;5.90;;;1.60;;
20657;SDS011;10488;50.846;4.078;2022-10-26T11:13:00;5.40;;;1.05;;
20657;SDS011;10488;50.846;4.078;2022-10-26T11:15:31;3.58;;;1.80;;
20657;SDS011;10488;50.846;4.078;2022-10-26T11:18:03;8.68;;;1.50;;
20657;SDS011;10488;50.846;4.078;2022-10-26T11:20:31;6.25;;;1.50;;
20657;SDS011;10488;50.846;4.078;2022-10-26T11:26:02;7.15;;;1.77;;
20657;SDS011;10488;50.846;4.078;2022-10-26T11:31:18;4.68;;;1.40;;
20657;SDS011;10488;50.846;4.078;2022-10-26T11:33:57;4.53;;;1.23;;
20657;SDS011;10488;50.846;4.078;2022-10-26T11:36:32;5.45;;;2.05;;
20657;SDS011;10488;50.846;4.078;2022-10-26T11:39:18;6.93;;;1.80;;
20657;SDS011;10488;50.846;4.078;2022-10-26T11:42:14;3.88;;;1.40;;
20657;SDS011;10488;50.846;4.078;2022-10-26T11:44:39;3.67;;;1.67;;
20657;SDS011;10488;50.846;4.078;2022-10-26T11:47:11;12.32;;;1.85;;
20657;SDS011;10488;50.846;4.078;2022-10-26T11:52:27;2.50;;;1.30;;
20657;SDS011;10488;50.846;4.078;2022-10-26T11:55:02;3.47;;;1.15;;
20657;SDS011;10488;50.846;4.078;2022-10-26T11:57:28;7.30;;;1.00;;
20657;SDS011;10488;50.846;4.078;2022-10-26T12:02:29;8.98;;;1.45;;
20657;SDS011;10488;50.846;4.078;2022-10-26T12:07:34;3.67;;;1.10;;
20657;SDS011;10488;50.846;4.078;2022-10-26T12:10:02;4.82;;;1.38;;
20657;SDS011;10488;50.846;4.078;2022-10-26T12:12:42;4.50;;;1.33;;
20657;SDS011;10488;50.846;4.078;2022-10-26T12:15:20;5.53;;;1.55;;
20657;SDS011;10488;50.846;4.078;2022-10-26T12:17:52;5.28;;;1.30;;
20657;SDS011;10488;50.846;4.078;2022-10-26T12:23:27;6.18;;;1.33;;
20657;SDS011;10488;50.846;4.078;2022-10-26T12:34:00;5.18;;;1.10;;
20657;SDS011;10488;50.846;4.078;2022-10-26T12:46:59;6.47;;;1.25;;
20657;SDS011;10488;50.846;4.078;2022-10-26T12:52:27;7.78;;;2.08;;
20657;SDS011;10488;50.846;4.078;2022-10-26T13:00:30;5.82;;;1.17;;
20657;SDS011;10488;50.846;4.078;2022-10-26T13:08:22;5.97;;;1.42;;
20657;SDS011;10488;50.846;4.078;2022-10-26T13:11:34;5.07;;;1.30;;
20657;SDS011;10488;50.846;4.078;2022-10-26T13:13:51;4.75;;;1.20;;
20657;SDS011;10488;50.846;4.078;2022-10-26T13:16:23;2.72;;;1.10;;
20657;SDS011;10488;50.846;4.078;2022-10-26T13:18:51;1.67;;;0.90;;
20657;SDS011;10488;50.846;4.078;2022-10-26T13:21:18;3.20;;;1.00;;
20657;SDS011;10488;50.846;4.078;2022-10-26T13:23:47;6.40;;;1.08;;
20657;SDS011;10488;50.846;4.078;2022-10-26T13:26:29;5.03;;;1.00;;
20657;SDS011;10488;50.846;4.078;2022-10-26T13:28:56;6.70;;;1.42;;
20657;SDS011;10488;50.846;4.078;2022-10-26T13:36:43;10.18;;;1.10;;
20657;SDS011;10488;50.846;4.078;2022-10-26T13:39:17;8.77;;;1.75;;
20657;SDS011;10488;50.846;4.078;2022-10-26T13:41:53;3.90;;;1.20;;
20657;SDS011;10488;50.846;4.078;2022-10-26T13:46:57;6.53;;;1.23;;
20657;SDS011;10488;50.846;4.078;2022-10-26T13:49:30;4.25;;;1.20;;
20657;SDS011;10488;50.846;4.078;2022-10-26T13:52:00;6.63;;;1.20;;
20657;SDS011;10488;50.846;4.078;2022-10-26T13:57:18;6.57;;;0.95;;
20657;SDS011;10488;50.846;4.078;2022-10-26T13:59:49;3.58;;;1.00;;
20657;SDS011;10488;50.846;4.078;2022-10-26T14:02:23;10.43;;;1.60;;
20657;SDS011;10488;50.846;4.078;2022-10-26T14:04:51;5.00;;;1.10;;
20657;SDS011;10488;50.846;4.078;2022-10-26T14:07:19;4.00;;;1.00;;
20657;SDS011;10488;50.846;4.078;2022-10-26T14:09:49;5.90;;;1.00;;
20657;SDS011;10488;50.846;4.078;2022-10-26T14:12:18;7.88;;;1.02;;
20657;SDS011;10488;50.846;4.078;2022-10-26T14:14:44;6.25;;;1.00;;
20657;SDS011;10488;50.846;4.078;2022-10-26T14:17:15;8.15;;;1.10;;
20657;SDS011;10488;50.846;4.078;2022-10-26T14:19:43;3.97;;;1.17;;
20657;SDS011;10488;50.846;4.078;2022-10-26T14:22:15;2.65;;;0.90;;
20657;SDS011;10488;50.846;4.078;2022-10-26T14:24:52;5.72;;;1.00;;
20657;SDS011;10488;50.846;4.078;2022-10-26T14:27:23;7.05;;;1.73;;
20657;SDS011;10488;50.846;4.078;2022-10-26T14:29:51;3.35;;;0.95;;
20657;SDS011;10488;50.846;4.078;2022-10-26T14:32:27;10.35;;;1.30;;
20657;SDS011;10488;50.846;4.078;2022-10-26T14:34:56;9.13;;;1.33;;
20657;SDS011;10488;50.846;4.078;2022-10-26T14:40:05;4.95;;;0.93;;
20657;SDS011;10488;50.846;4.078;2022-10-26T14:42:38;5.45;;;0.90;;
20657;SDS011;10488;50.846;4.078;2022-10-26T14:45:05;2.88;;;0.88;;
20657;SDS011;10488;50.846;4.078;2022-10-26T14:47:52;6.85;;;1.15;;
20657;SDS011;10488;50.846;4.078;2022-10-26T14:50:19;6.05;;;0.70;;
20657;SDS011;10488;50.846;4.078;2022-10-26T14:52:49;4.70;;;1.08;;
20657;SDS011;10488;50.846;4.078;2022-10-26T14:55:20;7.05;;;0.93;;
20657;SDS011;10488;50.846;4.078;2022-10-26T14:57:48;2.45;;;0.80;;
20657;SDS011;10488;50.846;4.078;2022-10-26T15:00:17;6.05;;;1.02;;
20657;SDS011;10488;50.846;4.078;2022-10-26T15:02:54;2.38;;;0.90;;
20657;SDS011;10488;50.846;4.078;2022-10-26T15:07:54;4.40;;;1.08;;
20657;SDS011;10488;50.846;4.078;2022-10-26T15:13:10;4.05;;;0.85;;
20657;SDS011;10488;50.846;4.078;2022-10-26T15:15:44;4.88;;;0.85;;
20657;SDS011;10488;50.846;4.078;2022-10-26T15:18:23;6.60;;;1.00;;
20657;SDS011;10488;50.846;4.078;2022-10-26T15:20:50;4.65;;;1.10;;
20657;SDS011;10488;50.846;4.078;2022-10-26T15:23:17;6.05;;;1.15;;
20657;SDS011;10488;50.846;4.078;2022-10-26T15:25:55;3.72;;;0.82;;
20657;SDS011;10488;50.846;4.078;2022-10-26T15:28:29;4.32;;;1.05;;
20657;SDS011;10488;50.846;4.078;2022-10-26T15:31:23;7.65;;;0.85;;
20657;SDS011;10488;50.846;4.078;2022-10-26T15:36:20;6.03;;;1.08;;
20657;SDS011;10488;50.846;4.078;2022-10-26T15:38:48;6.00;;;0.93;;
20657;SDS011;10488;50.846;4.078;2022-10-26T15:41:15;3.15;;;1.48;;
20657;SDS011;10488;50.846;4.078;2022-10-26T15:43:49;3.70;;;1.00;;
20657;SDS011;10488;50.846;4.078;2022-10-26T15:46:17;4.00;;;1.10;;
20657;SDS011;10488;50.846;4.078;2022-10-26T15:48:45;6.03;;;1.10;;
20657;SDS011;10488;50.846;4.078;2022-10-26T15:51:18;4.63;;;0.85;;
20657;SDS011;10488;50.846;4.078;2022-10-26T15:53:43;2.42;;;0.90;;
20657;SDS011;10488;50.846;4.078;2022-10-26T15:56:19;4.57;;;1.13;;
20657;SDS011;10488;50.846;4.078;2022-10-26T15:58:51;5.47;;;1.00;;
20657;SDS011;10488;50.846;4.078;2022-10-26T16:01:22;7.45;;;1.65;;
20657;SDS011;10488;50.846;4.078;2022-10-26T16:03:52;4.28;;;1.10;;
20657;SDS011;10488;50.846;4.078;2022-10-26T16:06:31;7.32;;;1.20;;
20657;SDS011;10488;50.846;4.078;2022-10-26T16:09:00;5.50;;;0.80;;
20657;SDS011;10488;50.846;4.078;2022-10-26T16:11:28;11.93;;;1.20;;
20657;SDS011;10488;50.846;4.078;2022-10-26T16:13:54;9.93;;;1.38;;
20657;SDS011;10488;50.846;4.078;2022-10-26T16:16:20;3.67;;;1.40;;
20657;SDS011;10488;50.846;4.078;2022-10-26T16:18:51;5.28;;;1.27;;
20657;SDS011;10488;50.846;4.078;2022-10-26T16:21:19;4.80;;;1.42;;
20657;SDS011;10488;50.846;4.078;2022-10-26T16:23:47;4.13;;;0.85;;
20657;SDS011;10488;50.846;4.078;2022-10-26T16:26:14;6.38;;;1.30;;
20657;SDS011;10488;50.846;4.078;2022-10-26T16:28:39;4.25;;;1.02;;
20657;SDS011;10488;50.846;4.078;2022-10-26T16:31:07;8.60;;;1.33;;
20657;SDS011;10488;50.846;4.078;2022-10-26T16:33:35;4.35;;;1.75;;
20657;SDS011;10488;50.846;4.078;2022-10-26T16:36:01;5.35;;;2.15;;
20657;SDS011;10488;50.846;4.078;2022-10-26T16:38:27;7.95;;;1.73;;
20657;SDS011;10488;50.846;4.078;2022-10-26T16:41:08;5.40;;;1.30;;
20657;SDS011;10488;50.846;4.078;2022-10-26T16:43:39;6.35;;;1.20;;
20657;SDS011;10488;50.846;4.078;2022-10-26T16:46:10;4.38;;;1.55;;
20657;SDS011;10488;50.846;4.078;2022-10-26T16:48:40;3.50;;;1.20;;
20657;SDS011;10488;50.846;4.078;2022-10-26T16:51:11;6.93;;;1.80;;
20657;SDS011;10488;50.846;4.078;2022-10-26T16:53:42;6.35;;;1.67;;
20657;SDS011;10488;50.846;4.078;2022-10-26T16:56:11;4.70;;;1.48;;
20657;SDS011;10488;50.846;4.078;2022-10-26T16:58:39;8.20;;;2.45;;
20657;SDS011;10488;50.846;4.078;2022-10-26T17:01:05;8.85;;;1.60;;
20657;SDS011;10488;50.846;4.078;2022-10-26T17:03:32;6.85;;;1.58;;
20657;SDS011;10488;50.846;4.078;2022-10-26T17:05:59;3.33;;;1.30;;
20657;SDS011;10488;50.846;4.078;2022-10-26T17:08:26;5.15;;;1.10;;
20657;SDS011;10488;50.846;4.078;2022-10-26T17:10:53;4.32;;;1.38;;
20657;SDS011;10488;50.846;4.078;2022-10-26T17:13:20;3.90;;;1.27;;
20657;SDS011;10488;50.846;4.078;2022-10-26T17:15:46;6.05;;;1.35;;
20657;SDS011;10488;50.846;4.078;2022-10-26T17:18:12;4.53;;;1.35;;
20657;SDS011;10488;50.846;4.078;2022-10-26T17:20:38;6.97;;;1.17;;
20657;SDS011;10488;50.846;4.078;2022-10-26T17:23:04;4.93;;;1.40;;
20657;SDS011;10488;50.846;4.078;2022-10-26T17:25:34;7.68;;;1.50;;
20657;SDS011;10488;50.846;4.078;2022-10-26T17:28:00;4.63;;;1.27;;
20657;SDS011;10488;50.846;4.078;2022-10-26T17:30:27;8.13;;;1.80;;